createdAt,value
2022-10-19T00:01:06.882Z,11.80
2022-10-19T00:03:36.021Z,11.70
2022-10-19T00:06:11.742Z,11.60
2022-10-19T00:08:41.601Z,11.60
2022-10-19T00:11:10.268Z,11.60
2022-10-19T00:13:38.808Z,11.60
2022-10-19T00:16:11.416Z,11.60
2022-10-19T00:18:40.231Z,11.50
2022-10-19T00:21:09.891Z,11.50
2022-10-19T00:23:38.382Z,11.40
2022-10-19T00:26:08.425Z,11.40
2022-10-19T00:28:36.717Z,11.40
2022-10-19T00:31:06.121Z,11.40
2022-10-19T00:33:34.428Z,11.40
2022-10-19T00:36:02.673Z,11.30
2022-10-19T00:38:30.901Z,11.30
2022-10-19T00:40:59.232Z,11.30
2022-10-19T00:43:31.602Z,11.30
2022-10-19T00:46:00.187Z,11.30
2022-10-19T00:48:31.002Z,11.20
2022-10-19T00:51:00.853Z,11.30
2022-10-19T00:53:30.202Z,11.30
2022-10-19T00:55:58.782Z,11.30
2022-10-19T00:58:28.907Z,11.20
2022-10-19T01:00:57.210Z,11.20
2022-10-19T01:03:25.462Z,11.20
2022-10-19T01:05:53.755Z,11.20
2022-10-19T01:08:22.025Z,11.20
2022-10-19T01:10:53.312Z,11.10
2022-10-19T01:13:30.221Z,11.10
2022-10-19T01:16:03.884Z,11.00
2022-10-19T01:18:39.413Z,11.00
2022-10-19T01:21:28.572Z,11.00
2022-10-19T01:24:20.373Z,10.90
2022-10-19T01:27:05.969Z,11.00
2022-10-19T01:29:43.312Z,11.00
2022-10-19T01:32:15.752Z,11.00
2022-10-19T01:34:48.132Z,11.00
2022-10-19T01:37:18.884Z,11.00
2022-10-19T01:39:54.312Z,11.00
2022-10-19T01:42:27.342Z,11.00
2022-10-19T01:44:56.982Z,11.00
2022-10-19T01:47:28.137Z,11.10
2022-10-19T01:49:58.432Z,11.10
2022-10-19T01:52:27.262Z,11.10
2022-10-19T01:54:58.766Z,11.10
2022-10-19T01:57:28.129Z,11.00
2022-10-19T01:59:57.062Z,11.00
2022-10-19T02:02:27.391Z,10.90
2022-10-19T02:04:58.295Z,10.90
2022-10-19T02:07:26.521Z,10.80
2022-10-19T02:09:54.742Z,10.80
2022-10-19T02:12:23.261Z,10.70
2022-10-19T02:14:54.862Z,10.70
2022-10-19T02:17:25.464Z,10.70
2022-10-19T02:19:56.019Z,10.70
2022-10-19T02:22:24.179Z,10.70
2022-10-19T02:24:52.339Z,10.60
2022-10-19T02:27:20.562Z,10.70
2022-10-19T02:29:48.741Z,10.70
2022-10-19T02:32:16.962Z,10.70
2022-10-19T02:34:45.271Z,10.70
2022-10-19T02:37:14.972Z,10.70
2022-10-19T02:39:43.699Z,10.80
2022-10-19T02:42:13.435Z,10.80
2022-10-19T02:44:43.430Z,10.70
2022-10-19T02:47:13.091Z,10.70
2022-10-19T02:49:41.420Z,10.60
2022-10-19T02:52:11.209Z,10.60
2022-10-19T02:54:42.699Z,10.60
2022-10-19T02:57:16.256Z,10.50
2022-10-19T02:59:44.470Z,10.50
2022-10-19T03:02:12.900Z,10.40
2022-10-19T03:04:41.846Z,10.40
2022-10-19T03:07:10.700Z,10.40
2022-10-19T03:09:38.910Z,10.40
2022-10-19T03:12:08.610Z,10.40
2022-10-19T03:14:37.570Z,10.40
2022-10-19T03:17:05.891Z,10.40
2022-10-19T03:19:34.194Z,10.40
2022-10-19T03:22:02.403Z,10.40
2022-10-19T03:24:31.153Z,10.40
2022-10-19T03:26:59.396Z,10.30
2022-10-19T03:29:29.069Z,10.30
2022-10-19T03:31:57.267Z,10.40
2022-10-19T03:34:25.869Z,10.30
2022-10-19T03:36:54.140Z,10.40
2022-10-19T03:39:22.341Z,10.40
2022-10-19T03:41:50.549Z,10.40
2022-10-19T03:44:18.820Z,10.40
2022-10-19T03:46:48.502Z,10.70
2022-10-19T03:49:17.040Z,10.50
2022-10-19T03:51:45.351Z,10.50
2022-10-19T03:54:15.021Z,10.50
2022-10-19T03:56:43.471Z,10.50
2022-10-19T03:59:13.301Z,10.50
2022-10-19T04:01:42.698Z,10.50
2022-10-19T04:04:14.547Z,10.50
2022-10-19T04:06:43.346Z,10.40
2022-10-19T04:09:13.561Z,10.40
2022-10-19T04:11:42.467Z,10.30
2022-10-19T04:14:15.958Z,10.30
2022-10-19T04:16:51.286Z,10.30
2022-10-19T04:19:21.397Z,10.40
2022-10-19T04:21:50.669Z,10.40
2022-10-19T04:24:19.887Z,10.30
2022-10-19T04:26:48.747Z,10.30
2022-10-19T04:29:17.686Z,10.30
2022-10-19T04:31:46.097Z,10.30
2022-10-19T04:34:14.297Z,10.20
2022-10-19T04:36:43.977Z,10.20
2022-10-19T04:39:12.197Z,10.20
2022-10-19T04:41:40.426Z,10.10
2022-10-19T04:44:08.817Z,10.10
2022-10-19T04:46:37.575Z,10.10
2022-10-19T04:49:07.002Z,10.00
2022-10-19T04:51:35.377Z,10.00
2022-10-19T04:54:05.558Z,10.10
2022-10-19T04:56:33.977Z,10.00
2022-10-19T04:59:02.555Z,10.00
2022-10-19T05:01:31.630Z,9.90
2022-10-19T05:04:00.963Z,9.90
2022-10-19T05:06:29.725Z,9.90
2022-10-19T05:08:57.967Z,10.00
2022-10-19T05:11:27.736Z,10.00
2022-10-19T05:13:56.987Z,9.90
2022-10-19T05:16:25.987Z,9.90
2022-10-19T05:18:56.196Z,9.90
2022-10-19T05:21:24.580Z,10.00
2022-10-19T05:23:53.417Z,10.00
2022-10-19T05:26:22.716Z,9.90
2022-10-19T05:28:56.611Z,9.90
2022-10-19T05:31:26.372Z,9.90
2022-10-19T05:34:01.502Z,10.00
2022-10-19T05:36:32.440Z,10.00
2022-10-19T05:39:02.358Z,10.10
2022-10-19T05:41:30.518Z,10.10
2022-10-19T05:44:00.866Z,10.10
2022-10-19T05:46:29.922Z,10.10
2022-10-19T05:48:58.915Z,10.20
2022-10-19T05:51:28.076Z,10.20
2022-10-19T05:53:56.930Z,10.20
2022-10-19T05:56:26.187Z,10.20
2022-10-19T05:58:54.536Z,10.20
2022-10-19T06:01:24.353Z,10.30
2022-10-19T06:03:53.236Z,10.30
2022-10-19T06:06:21.456Z,10.30
2022-10-19T06:08:50.135Z,10.30
2022-10-19T06:11:19.417Z,10.30
2022-10-19T06:13:50.518Z,10.40
2022-10-19T06:16:19.987Z,10.40
2022-10-19T06:18:49.607Z,10.40
2022-10-19T06:21:18.511Z,10.30
2022-10-19T06:23:46.860Z,10.30
2022-10-19T06:26:15.367Z,10.30
2022-10-19T06:28:44.769Z,10.40
2022-10-19T06:31:13.800Z,10.50
2022-10-19T06:33:43.178Z,10.50
2022-10-19T06:36:23.096Z,10.50
2022-10-19T06:38:51.758Z,10.50
2022-10-19T06:41:20.281Z,10.50
2022-10-19T06:43:50.689Z,10.50
2022-10-19T06:46:20.751Z,10.60
2022-10-19T06:48:52.837Z,10.60
2022-10-19T06:51:23.017Z,10.60
2022-10-19T06:53:52.809Z,10.70
2022-10-19T06:56:24.752Z,10.80
2022-10-19T06:58:53.396Z,10.80
2022-10-19T07:01:22.334Z,10.80
2022-10-19T07:03:52.283Z,10.80
2022-10-19T07:06:20.747Z,10.80
2022-10-19T07:08:51.448Z,10.80
2022-10-19T07:11:21.008Z,10.80
2022-10-19T07:13:49.541Z,10.90
2022-10-19T07:16:21.317Z,10.90
2022-10-19T07:18:50.397Z,10.90
2022-10-19T07:21:18.877Z,10.80
2022-10-19T07:23:47.507Z,10.90
2022-10-19T07:26:18.564Z,10.90
2022-10-19T07:28:48.167Z,10.90
2022-10-19T07:31:20.453Z,11.00
2022-10-19T07:33:49.006Z,11.00
2022-10-19T07:36:17.236Z,11.00
2022-10-19T07:38:45.567Z,11.10
2022-10-19T07:41:14.996Z,11.10
2022-10-19T07:43:46.311Z,11.00
2022-10-19T07:46:15.257Z,11.10
2022-10-19T07:48:44.487Z,11.10
2022-10-19T07:51:14.123Z,11.10
2022-10-19T07:53:42.519Z,11.10
2022-10-19T07:56:12.209Z,11.10
2022-10-19T07:58:40.827Z,11.30
2022-10-19T08:01:13.147Z,11.20
2022-10-19T08:06:30.066Z,11.10
2022-10-19T08:08:58.382Z,11.20
2022-10-19T08:11:27.826Z,11.20
2022-10-19T08:13:58.807Z,11.20
2022-10-19T08:16:29.606Z,11.10
2022-10-19T08:18:58.660Z,11.10
2022-10-19T08:21:27.076Z,11.20
2022-10-19T08:23:55.277Z,11.30
2022-10-19T08:26:23.547Z,11.50
2022-10-19T08:28:51.717Z,11.40
2022-10-19T08:31:22.250Z,11.60
2022-10-19T08:33:52.316Z,11.60
2022-10-19T08:36:21.529Z,11.50
2022-10-19T08:38:50.483Z,11.60
2022-10-19T08:41:22.876Z,11.70
2022-10-19T08:43:59.057Z,11.70
2022-10-19T08:46:33.927Z,11.70
2022-10-19T08:49:03.846Z,11.70
2022-10-19T08:51:34.726Z,11.70
2022-10-19T08:54:05.157Z,11.70
2022-10-19T08:56:51.830Z,11.70
2022-10-19T08:59:28.516Z,11.70
2022-10-19T09:01:58.297Z,11.80
2022-10-19T09:04:29.986Z,12.00
2022-10-19T09:07:13.189Z,12.10
2022-10-19T09:12:14.407Z,12.40
2022-10-19T09:14:46.987Z,12.40
2022-10-19T09:17:17.393Z,12.40
2022-10-19T09:19:47.038Z,12.30
2022-10-19T09:22:19.197Z,12.40
2022-10-19T09:24:50.426Z,12.50
2022-10-19T09:27:22.181Z,12.50
2022-10-19T09:29:52.467Z,12.50
2022-10-19T09:32:21.886Z,12.60
2022-10-19T09:34:52.717Z,12.70
2022-10-19T09:37:25.960Z,12.80
2022-10-19T09:39:55.737Z,13.00
2022-10-19T09:42:26.129Z,13.10
2022-10-19T09:44:55.817Z,13.20
2022-10-19T09:47:35.114Z,13.20
2022-10-19T09:50:21.445Z,13.10
2022-10-19T09:52:51.546Z,13.20
2022-10-19T09:55:23.898Z,13.40
2022-10-19T09:57:58.942Z,13.40
2022-10-19T10:00:32.416Z,13.30
2022-10-19T10:03:00.617Z,13.20
2022-10-19T10:05:32.337Z,13.20
2022-10-19T10:08:02.136Z,12.90
2022-10-19T10:10:32.679Z,12.80
2022-10-19T10:13:01.105Z,12.80
2022-10-19T10:15:30.767Z,12.80
2022-10-19T10:18:02.278Z,12.80
2022-10-19T10:20:32.529Z,12.90
2022-10-19T10:23:03.868Z,12.90
2022-10-19T10:25:32.946Z,12.80
2022-10-19T10:28:02.783Z,12.80
2022-10-19T10:30:33.910Z,13.00
2022-10-19T10:33:13.291Z,13.00
2022-10-19T10:35:53.577Z,12.90
2022-10-19T10:38:26.436Z,12.90
2022-10-19T10:40:58.037Z,12.90
2022-10-19T10:43:30.796Z,13.00
2022-10-19T10:46:02.027Z,13.10
2022-10-19T10:48:31.418Z,13.00
2022-10-19T10:51:01.088Z,13.00
2022-10-19T10:53:41.257Z,13.00
2022-10-19T10:56:22.177Z,13.00
2022-10-19T10:58:53.370Z,13.00
2022-10-19T11:01:23.285Z,12.80
2022-10-19T11:03:54.221Z,12.60
2022-10-19T11:08:57.109Z,12.70
2022-10-19T11:11:27.260Z,12.70
2022-10-19T11:13:59.283Z,12.70
2022-10-19T11:16:29.980Z,12.70
2022-10-19T11:19:02.198Z,12.70
2022-10-19T11:21:32.901Z,12.70
2022-10-19T11:24:06.890Z,12.80
2022-10-19T11:26:47.600Z,12.90
2022-10-19T11:29:22.350Z,12.90
2022-10-19T11:31:52.661Z,12.70
2022-10-19T11:34:44.351Z,12.80
2022-10-19T11:37:16.221Z,12.80
2022-10-19T11:39:51.289Z,12.90
2022-10-19T11:42:20.881Z,13.00
2022-10-19T11:44:53.849Z,12.90
2022-10-19T11:47:29.460Z,12.90
2022-10-19T11:50:03.639Z,13.10
2022-10-19T11:52:35.894Z,13.10
2022-10-19T11:55:12.770Z,13.10
2022-10-19T11:57:45.068Z,13.10
2022-10-19T12:00:27.318Z,13.20
2022-10-19T12:03:16.434Z,13.20
2022-10-19T12:05:50.760Z,13.20
2022-10-19T12:08:25.562Z,13.30
2022-10-19T12:10:58.919Z,13.40
2022-10-19T12:13:29.950Z,13.30
2022-10-19T12:16:00.242Z,13.20
2022-10-19T12:18:32.061Z,13.30
2022-10-19T12:21:02.499Z,13.50
2022-10-19T12:23:33.231Z,13.50
2022-10-19T12:26:05.105Z,13.50
2022-10-19T12:28:34.359Z,13.40
2022-10-19T12:31:03.330Z,13.20
2022-10-19T12:33:37.370Z,13.20
2022-10-19T12:36:14.050Z,13.20
2022-10-19T12:38:49.381Z,13.10
2022-10-19T12:41:24.470Z,13.10
2022-10-19T12:44:02.549Z,13.00
2022-10-19T12:46:33.566Z,13.00
2022-10-19T12:49:16.621Z,12.80
2022-10-19T12:51:48.280Z,12.80
2022-10-19T12:54:16.583Z,12.70
2022-10-19T12:56:50.753Z,12.50
2022-10-19T12:59:24.010Z,12.40
2022-10-19T13:01:52.950Z,12.40
2022-10-19T13:04:22.810Z,12.50
2022-10-19T13:06:52.279Z,12.70
2022-10-19T13:09:24.900Z,12.70
2022-10-19T13:12:16.326Z,12.80
2022-10-19T13:14:51.000Z,12.60
2022-10-19T13:17:34.322Z,12.50
2022-10-19T13:20:17.891Z,12.40
2022-10-19T13:22:47.256Z,12.60
2022-10-19T13:25:33.135Z,12.60
2022-10-19T13:28:16.270Z,12.40
2022-10-19T13:31:09.193Z,12.40
2022-10-19T13:33:52.239Z,12.40
2022-10-19T13:36:21.615Z,12.30
2022-10-19T13:39:06.114Z,12.30
2022-10-19T13:41:48.492Z,12.30
2022-10-19T13:44:20.903Z,12.30
2022-10-19T13:46:53.649Z,12.30
2022-10-19T13:49:33.180Z,12.40
2022-10-19T13:52:19.250Z,12.40
2022-10-19T13:55:02.308Z,12.40
2022-10-19T13:57:34.793Z,12.30
2022-10-19T14:00:15.084Z,12.30
2022-10-19T14:03:01.031Z,12.20
2022-10-19T14:05:46.892Z,12.20
2022-10-19T14:08:24.473Z,12.30
2022-10-19T14:11:00.975Z,12.30
2022-10-19T14:13:30.182Z,12.30
2022-10-19T14:16:00.410Z,12.30
2022-10-19T14:18:30.209Z,12.40
2022-10-19T14:20:59.511Z,12.40
2022-10-19T14:23:32.832Z,12.40
2022-10-19T14:26:03.559Z,12.50
2022-10-19T14:28:34.892Z,12.50
2022-10-19T14:31:06.041Z,12.40
2022-10-19T14:33:35.295Z,12.40
2022-10-19T14:36:03.909Z,12.30
2022-10-19T14:38:36.503Z,12.40
2022-10-19T14:41:05.721Z,12.40
2022-10-19T14:43:34.758Z,12.20
2022-10-19T14:46:11.359Z,12.20
2022-10-19T14:48:40.419Z,12.30
2022-10-19T14:51:10.550Z,12.20
2022-10-19T14:53:41.631Z,12.20
2022-10-19T14:56:11.249Z,12.20
2022-10-19T14:58:41.546Z,12.20
2022-10-19T15:01:10.961Z,12.20
2022-10-19T15:03:43.627Z,12.20
2022-10-19T15:06:18.931Z,12.20
2022-10-19T15:08:50.848Z,12.20
2022-10-19T15:11:29.732Z,12.10
2022-10-19T15:14:03.198Z,12.10
2022-10-19T15:16:33.023Z,12.00
2022-10-19T15:19:03.982Z,12.00
2022-10-19T15:21:33.511Z,12.00
2022-10-19T15:24:17.390Z,12.00
2022-10-19T15:27:01.713Z,12.10
2022-10-19T15:29:36.889Z,12.10
2022-10-19T15:32:15.911Z,12.10
2022-10-19T15:34:44.990Z,12.10
2022-10-19T15:37:18.349Z,12.00
2022-10-19T15:39:48.522Z,12.00
2022-10-19T15:42:31.489Z,12.00
2022-10-19T15:45:00.374Z,11.90
2022-10-19T15:47:28.780Z,12.00
2022-10-19T15:49:59.811Z,12.00
2022-10-19T15:52:28.803Z,12.00
2022-10-19T15:54:59.270Z,12.00
2022-10-19T15:57:29.710Z,12.10
2022-10-19T16:00:00.210Z,12.00
2022-10-19T16:02:28.920Z,12.00
2022-10-19T16:04:57.318Z,12.00
2022-10-19T16:07:27.192Z,11.90
2022-10-19T16:09:55.801Z,11.90
2022-10-19T16:12:26.594Z,11.90
2022-10-19T16:14:55.221Z,11.90
2022-10-19T16:17:23.800Z,11.80
2022-10-19T16:19:52.609Z,11.80
2022-10-19T16:22:20.889Z,11.80
2022-10-19T16:24:49.169Z,11.80
2022-10-19T16:27:17.807Z,11.80
2022-10-19T16:29:47.460Z,11.80
2022-10-19T16:32:15.801Z,11.80
2022-10-19T16:34:44.149Z,11.70
2022-10-19T16:37:12.441Z,11.70
2022-10-19T16:39:40.721Z,11.60
2022-10-19T16:42:09.472Z,11.60
2022-10-19T16:44:37.720Z,11.60
2022-10-19T16:47:07.849Z,11.60
2022-10-19T16:49:36.189Z,11.50
2022-10-19T16:52:06.262Z,11.40
2022-10-19T16:54:35.062Z,11.50
2022-10-19T16:57:08.721Z,11.40
2022-10-19T16:59:38.450Z,11.40
2022-10-19T17:02:08.460Z,11.40
2022-10-19T17:04:36.800Z,11.30
2022-10-19T17:07:05.132Z,11.30
2022-10-19T17:09:42.216Z,11.20
2022-10-19T17:12:12.095Z,11.20
2022-10-19T17:14:41.069Z,11.20
2022-10-19T17:17:11.262Z,11.20
2022-10-19T17:19:39.770Z,11.10
2022-10-19T17:22:08.169Z,11.00
2022-10-19T17:24:37.630Z,10.90
2022-10-19T17:27:05.890Z,10.90
2022-10-19T17:29:34.450Z,10.80
2022-10-19T17:32:02.699Z,10.80
2022-10-19T17:34:32.421Z,10.70
2022-10-19T17:37:01.040Z,10.70
2022-10-19T17:39:30.187Z,10.60
2022-10-19T17:42:02.080Z,10.50
2022-10-19T17:44:31.777Z,10.50
2022-10-19T17:47:00.809Z,10.50
2022-10-19T17:49:30.097Z,10.50
2022-10-19T17:52:00.119Z,10.40
2022-10-19T17:54:28.937Z,10.40
2022-10-19T17:56:57.600Z,10.30
2022-10-19T17:59:34.682Z,10.30
2022-10-19T18:02:14.300Z,10.30
2022-10-19T18:04:43.920Z,10.20
2022-10-19T18:07:13.642Z,10.10
2022-10-19T18:09:43.220Z,10.10
2022-10-19T18:12:13.549Z,10.00
2022-10-19T18:14:41.890Z,10.00
2022-10-19T18:17:10.230Z,9.90
2022-10-19T18:19:38.520Z,9.90
2022-10-19T18:22:06.760Z,9.90
2022-10-19T18:24:36.633Z,9.90
2022-10-19T18:27:05.049Z,9.90
2022-10-19T18:29:33.319Z,9.80
2022-10-19T18:32:02.050Z,9.80
2022-10-19T18:34:30.401Z,9.80
2022-10-19T18:36:58.761Z,9.80
2022-10-19T18:39:27.100Z,9.80
2022-10-19T18:41:56.909Z,9.70
2022-10-19T18:44:28.653Z,9.60
2022-10-19T18:46:59.300Z,9.60
2022-10-19T18:49:27.963Z,9.60
2022-10-19T18:51:56.395Z,9.50
2022-10-19T18:54:24.951Z,9.50
2022-10-19T18:56:53.271Z,9.50
2022-10-19T18:59:24.185Z,9.40
2022-10-19T19:01:52.590Z,9.40
2022-10-19T19:04:21.349Z,9.50
2022-10-19T19:06:50.007Z,9.40
2022-10-19T19:09:19.122Z,9.40
2022-10-19T19:11:47.743Z,9.30
2022-10-19T19:14:18.256Z,9.30
2022-10-19T19:16:48.160Z,9.30
2022-10-19T19:19:18.150Z,9.40
2022-10-19T19:21:46.730Z,9.40
2022-10-19T19:24:16.130Z,9.40
2022-10-19T19:26:46.100Z,9.30
2022-10-19T19:29:14.465Z,9.20
2022-10-19T19:31:42.762Z,9.20
2022-10-19T19:34:12.440Z,9.20
2022-10-19T19:39:16.089Z,9.00
2022-10-19T19:41:44.350Z,9.00
2022-10-19T19:44:12.670Z,9.00
2022-10-19T19:46:40.960Z,9.00
2022-10-19T19:49:09.202Z,8.90
2022-10-19T19:51:39.003Z,8.90
2022-10-19T19:54:07.309Z,9.00
2022-10-19T19:56:37.370Z,9.00
2022-10-19T19:59:06.231Z,8.90
2022-10-19T20:01:34.568Z,8.90
2022-10-19T20:06:31.461Z,8.90
2022-10-19T20:09:01.361Z,8.80
2022-10-19T20:11:30.469Z,8.80
2022-10-19T20:13:59.410Z,8.80
2022-10-19T20:16:29.485Z,8.90
2022-10-19T20:19:00.280Z,8.80
2022-10-19T20:21:28.560Z,8.90
2022-10-19T20:23:57.080Z,8.90
2022-10-19T20:26:26.829Z,8.90
2022-10-19T20:28:55.121Z,8.80
2022-10-19T20:31:23.796Z,8.80
2022-10-19T20:33:52.119Z,8.80
2022-10-19T20:36:21.744Z,8.70
2022-10-19T20:38:51.399Z,8.70
2022-10-19T20:41:20.069Z,8.70
2022-10-19T20:43:49.769Z,8.70
2022-10-19T20:46:19.380Z,8.70
2022-10-19T20:48:47.820Z,8.70
2022-10-19T20:51:16.971Z,8.60
2022-10-19T20:53:46.580Z,8.60
2022-10-19T20:56:15.809Z,8.60
2022-10-19T20:58:45.209Z,8.70
2022-10-19T21:01:16.139Z,8.60
2022-10-19T21:03:47.081Z,8.60
2022-10-19T21:06:15.542Z,8.60
2022-10-19T21:08:44.154Z,8.60
2022-10-19T21:11:13.209Z,8.60
2022-10-19T21:13:41.740Z,8.60
2022-10-19T21:16:10.802Z,8.50
2022-10-19T21:18:41.100Z,8.50
2022-10-19T21:21:15.690Z,8.50
2022-10-19T21:23:44.519Z,8.50
2022-10-19T21:26:13.120Z,8.50
2022-10-19T21:28:41.949Z,8.50
2022-10-19T21:31:10.950Z,8.50
2022-10-19T21:33:40.630Z,8.50
2022-10-19T21:36:09.370Z,8.50
2022-10-19T21:38:37.879Z,8.50
2022-10-19T21:41:07.709Z,8.40
2022-10-19T21:43:36.109Z,8.40
2022-10-19T21:46:05.011Z,8.40
2022-10-19T21:48:33.870Z,8.40
2022-10-19T21:51:11.830Z,8.40
2022-10-19T21:53:40.069Z,8.40
2022-10-19T21:56:08.409Z,8.40
2022-10-19T21:58:36.940Z,8.40
2022-10-19T22:01:05.850Z,8.30
2022-10-19T22:03:34.331Z,8.30
2022-10-19T22:06:04.063Z,8.30
2022-10-19T22:08:32.590Z,8.30
2022-10-19T22:11:05.352Z,8.30
2022-10-19T22:13:33.719Z,8.20
2022-10-19T22:16:06.300Z,8.20
2022-10-19T22:18:34.649Z,8.20
2022-10-19T22:21:05.460Z,8.20
2022-10-19T22:23:33.940Z,8.10
2022-10-19T22:26:02.219Z,8.10
2022-10-19T22:28:31.021Z,8.00
2022-10-19T22:31:00.190Z,8.10
2022-10-19T22:33:28.469Z,8.00
2022-10-19T22:35:57.119Z,8.00
2022-10-19T22:38:28.210Z,8.00
2022-10-19T22:40:56.862Z,8.00
2022-10-19T22:43:25.190Z,8.00
2022-10-19T22:45:53.524Z,8.00
2022-10-19T22:48:21.810Z,8.00
2022-10-19T22:50:50.050Z,7.90
2022-10-19T22:53:18.531Z,7.90
2022-10-19T22:55:48.240Z,7.90
2022-10-19T22:58:16.911Z,7.80
2022-10-19T23:00:45.289Z,7.80
2022-10-19T23:03:13.529Z,7.80
2022-10-19T23:05:41.759Z,7.80
2022-10-19T23:08:10.282Z,7.80
2022-10-19T23:10:38.992Z,7.80
2022-10-19T23:13:09.832Z,7.80
2022-10-19T23:15:43.059Z,7.70
2022-10-19T23:18:12.932Z,7.80
2022-10-19T23:20:41.182Z,7.70
2022-10-19T23:23:09.393Z,7.70
2022-10-19T23:25:37.710Z,7.70
2022-10-19T23:28:06.117Z,7.70
2022-10-19T23:30:38.355Z,7.60
2022-10-19T23:33:06.589Z,7.60
2022-10-19T23:35:34.802Z,7.60
2022-10-19T23:38:03.425Z,7.60
2022-10-19T23:40:31.676Z,7.60
2022-10-19T23:42:59.865Z,7.60
2022-10-19T23:45:28.193Z,7.60
2022-10-19T23:47:57.804Z,7.50
2022-10-19T23:50:26.114Z,7.50
2022-10-19T23:52:54.385Z,7.50
2022-10-19T23:55:22.646Z,7.50
2022-10-19T23:57:50.834Z,7.50
